sensor_id;sensor_type;location;lat;lon;timestamp;temperature;humidity
34877;DHT22;21086;44.780;17.194;2023-12-20T00:02:17;3.20;99.90
34877;DHT22;21086;44.780;17.194;2023-12-20T00:04:44;3.20;99.90
34877;DHT22;21086;44.780;17.194;2023-12-20T00:07:11;3.20;99.90
34877;DHT22;21086;44.780;17.194;2023-12-20T00:09:38;3.20;99.90
34877;DHT22;21086;44.780;17.194;2023-12-20T00:12:05;3.10;99.90
34877;DHT22;21086;44.780;17.194;2023-12-20T00:14:32;3.10;99.90
34877;DHT22;21086;44.780;17.194;2023-12-20T00:16:59;4.70;99.90
34877;DHT22;21086;44.780;17.194;2023-12-20T00:19:26;3.10;99.90
34877;DHT22;21086;44.780;17.194;2023-12-20T00:21:53;3.10;99.90
34877;DHT22;21086;44.780;17.194;2023-12-20T00:24:20;3.10;99.90
34877;DHT22;21086;44.780;17.194;2023-12-20T00:26:47;3.00;99.90
34877;DHT22;21086;44.780;17.194;2023-12-20T00:29:14;3.00;99.90
34877;DHT22;21086;44.780;17.194;2023-12-20T00:31:41;3.00;99.90
34877;DHT22;21086;44.780;17.194;2023-12-20T00:34:08;3.00;99.90
34877;DHT22;21086;44.780;17.194;2023-12-20T00:36:35;3.00;99.90
34877;DHT22;21086;44.780;17.194;2023-12-20T00:39:03;3.00;99.90
34877;DHT22;21086;44.780;17.194;2023-12-20T00:41:31;3.00;99.90
34877;DHT22;21086;44.780;17.194;2023-12-20T00:43:58;3.10;99.90
34877;DHT22;21086;44.780;17.194;2023-12-20T00:46:24;3.00;99.90
34877;DHT22;21086;44.780;17.194;2023-12-20T00:48:52;3.00;99.90
34877;DHT22;21086;44.780;17.194;2023-12-20T00:51:19;3.00;99.90
34877;DHT22;21086;44.780;17.194;2023-12-20T00:53:46;3.00;99.90
34877;DHT22;21086;44.780;17.194;2023-12-20T00:56:19;3.10;99.90
34877;DHT22;21086;44.780;17.194;2023-12-20T00:58:46;3.10;99.90
34877;DHT22;21086;44.780;17.194;2023-12-20T01:01:12;3.10;99.90
34877;DHT22;21086;44.780;17.194;2023-12-20T01:03:39;3.10;99.90
34877;DHT22;21086;44.780;17.194;2023-12-20T01:06:06;3.00;99.90
34877;DHT22;21086;44.780;17.194;2023-12-20T01:08:34;3.00;99.90
34877;DHT22;21086;44.780;17.194;2023-12-20T01:11:04;3.00;99.90
34877;DHT22;21086;44.780;17.194;2023-12-20T01:13:32;2.90;99.90
34877;DHT22;21086;44.780;17.194;2023-12-20T01:15:59;2.90;99.90
34877;DHT22;21086;44.780;17.194;2023-12-20T01:18:26;2.90;99.90
34877;DHT22;21086;44.780;17.194;2023-12-20T01:20:53;2.90;99.90
34877;DHT22;21086;44.780;17.194;2023-12-20T01:23:20;2.90;99.90
34877;DHT22;21086;44.780;17.194;2023-12-20T01:25:47;2.90;99.90
34877;DHT22;21086;44.780;17.194;2023-12-20T01:28:14;2.90;99.90
34877;DHT22;21086;44.780;17.194;2023-12-20T01:30:41;2.80;99.90
34877;DHT22;21086;44.780;17.194;2023-12-20T01:33:09;2.80;99.90
34877;DHT22;21086;44.780;17.194;2023-12-20T01:35:36;2.80;99.90
34877;DHT22;21086;44.780;17.194;2023-12-20T01:38:04;2.80;99.90
34877;DHT22;21086;44.780;17.194;2023-12-20T01:40:31;2.70;99.90
34877;DHT22;21086;44.780;17.194;2023-12-20T01:43:02;2.70;99.90
34877;DHT22;21086;44.780;17.194;2023-12-20T01:45:29;2.60;99.90
34877;DHT22;21086;44.780;17.194;2023-12-20T01:47:57;2.60;99.90
34877;DHT22;21086;44.780;17.194;2023-12-20T01:50:25;2.60;99.90
34877;DHT22;21086;44.780;17.194;2023-12-20T01:52:54;2.60;99.90
34877;DHT22;21086;44.780;17.194;2023-12-20T01:55:25;2.60;99.90
34877;DHT22;21086;44.780;17.194;2023-12-20T01:57:52;2.60;99.90
34877;DHT22;21086;44.780;17.194;2023-12-20T02:00:19;2.60;99.90
34877;DHT22;21086;44.780;17.194;2023-12-20T02:02:51;2.50;99.90
34877;DHT22;21086;44.780;17.194;2023-12-20T02:05:19;2.50;99.90
34877;DHT22;21086;44.780;17.194;2023-12-20T02:07:46;2.50;99.90
34877;DHT22;21086;44.780;17.194;2023-12-20T02:10:15;2.50;99.90
34877;DHT22;21086;44.780;17.194;2023-12-20T02:12:42;2.50;99.90
34877;DHT22;21086;44.780;17.194;2023-12-20T02:15:10;2.60;99.90
34877;DHT22;21086;44.780;17.194;2023-12-20T02:17:38;2.60;99.90
34877;DHT22;21086;44.780;17.194;2023-12-20T02:20:07;2.60;99.90
34877;DHT22;21086;44.780;17.194;2023-12-20T02:22:34;2.60;99.90
34877;DHT22;21086;44.780;17.194;2023-12-20T02:25:01;2.60;99.90
34877;DHT22;21086;44.780;17.194;2023-12-20T02:27:29;2.60;99.90
34877;DHT22;21086;44.780;17.194;2023-12-20T02:29:56;2.60;99.90
34877;DHT22;21086;44.780;17.194;2023-12-20T02:32:24;2.60;99.90
34877;DHT22;21086;44.780;17.194;2023-12-20T02:34:55;2.60;99.90
34877;DHT22;21086;44.780;17.194;2023-12-20T02:37:23;2.50;99.90
34877;DHT22;21086;44.780;17.194;2023-12-20T02:39:50;2.40;99.90
34877;DHT22;21086;44.780;17.194;2023-12-20T02:42:17;2.40;99.90
34877;DHT22;21086;44.780;17.194;2023-12-20T02:44:44;2.40;99.90
34877;DHT22;21086;44.780;17.194;2023-12-20T02:47:11;2.20;99.90
34877;DHT22;21086;44.780;17.194;2023-12-20T02:49:38;2.30;99.90
34877;DHT22;21086;44.780;17.194;2023-12-20T02:52:05;2.30;99.90
34877;DHT22;21086;44.780;17.194;2023-12-20T02:54:32;2.40;99.90
34877;DHT22;21086;44.780;17.194;2023-12-20T02:56:59;2.40;99.90
34877;DHT22;21086;44.780;17.194;2023-12-20T02:59:26;2.40;99.90
34877;DHT22;21086;44.780;17.194;2023-12-20T03:01:53;2.40;99.90
34877;DHT22;21086;44.780;17.194;2023-12-20T03:04:20;2.40;99.90
34877;DHT22;21086;44.780;17.194;2023-12-20T03:06:47;2.40;99.90
34877;DHT22;21086;44.780;17.194;2023-12-20T03:09:14;2.40;99.90
34877;DHT22;21086;44.780;17.194;2023-12-20T03:11:41;2.40;99.90
34877;DHT22;21086;44.780;17.194;2023-12-20T03:14:08;2.40;99.90
34877;DHT22;21086;44.780;17.194;2023-12-20T03:16:35;2.40;99.90
34877;DHT22;21086;44.780;17.194;2023-12-20T03:19:02;2.30;99.90
34877;DHT22;21086;44.780;17.194;2023-12-20T03:21:29;2.30;99.90
34877;DHT22;21086;44.780;17.194;2023-12-20T03:23:56;2.30;99.90
34877;DHT22;21086;44.780;17.194;2023-12-20T03:26:23;2.30;99.90
34877;DHT22;21086;44.780;17.194;2023-12-20T03:28:50;2.20;99.90
34877;DHT22;21086;44.780;17.194;2023-12-20T03:31:17;2.20;99.90
34877;DHT22;21086;44.780;17.194;2023-12-20T03:33:44;2.10;99.90
34877;DHT22;21086;44.780;17.194;2023-12-20T03:36:11;2.10;99.90
34877;DHT22;21086;44.780;17.194;2023-12-20T03:38:38;2.10;99.90
34877;DHT22;21086;44.780;17.194;2023-12-20T03:41:07;2.20;99.90
34877;DHT22;21086;44.780;17.194;2023-12-20T03:43:34;2.20;99.90
34877;DHT22;21086;44.780;17.194;2023-12-20T03:46:01;2.20;99.90
34877;DHT22;21086;44.780;17.194;2023-12-20T03:48:33;2.10;99.90
34877;DHT22;21086;44.780;17.194;2023-12-20T03:51:00;2.20;99.90
34877;DHT22;21086;44.780;17.194;2023-12-20T03:53:27;2.20;99.90
34877;DHT22;21086;44.780;17.194;2023-12-20T03:55:54;2.20;99.90
34877;DHT22;21086;44.780;17.194;2023-12-20T03:58:21;2.20;99.90
34877;DHT22;21086;44.780;17.194;2023-12-20T04:00:48;2.20;99.90
34877;DHT22;21086;44.780;17.194;2023-12-20T04:03:15;2.10;99.90
34877;DHT22;21086;44.780;17.194;2023-12-20T04:05:42;2.00;99.90
34877;DHT22;21086;44.780;17.194;2023-12-20T04:08:11;2.00;99.90
34877;DHT22;21086;44.780;17.194;2023-12-20T04:10:38;2.10;99.90
34877;DHT22;21086;44.780;17.194;2023-12-20T04:13:05;2.10;99.90
34877;DHT22;21086;44.780;17.194;2023-12-20T04:15:32;2.10;99.90
34877;DHT22;21086;44.780;17.194;2023-12-20T04:17:59;2.10;99.90
34877;DHT22;21086;44.780;17.194;2023-12-20T04:20:26;2.10;99.90
34877;DHT22;21086;44.780;17.194;2023-12-20T04:22:53;2.10;99.90
34877;DHT22;21086;44.780;17.194;2023-12-20T04:25:20;1.80;99.90
34877;DHT22;21086;44.780;17.194;2023-12-20T04:27:47;1.70;99.90
34877;DHT22;21086;44.780;17.194;2023-12-20T04:30:15;1.80;99.90
34877;DHT22;21086;44.780;17.194;2023-12-20T04:32:42;1.60;99.90
34877;DHT22;21086;44.780;17.194;2023-12-20T04:35:09;1.60;99.90
34877;DHT22;21086;44.780;17.194;2023-12-20T04:37:36;1.70;99.90
34877;DHT22;21086;44.780;17.194;2023-12-20T04:40:03;1.80;99.90
34877;DHT22;21086;44.780;17.194;2023-12-20T04:42:32;1.80;99.90
34877;DHT22;21086;44.780;17.194;2023-12-20T04:44:59;1.80;99.90
34877;DHT22;21086;44.780;17.194;2023-12-20T04:47:26;1.90;99.90
34877;DHT22;21086;44.780;17.194;2023-12-20T04:49:53;1.90;99.90
34877;DHT22;21086;44.780;17.194;2023-12-20T04:52:20;1.90;99.90
34877;DHT22;21086;44.780;17.194;2023-12-20T04:54:47;1.90;99.90
34877;DHT22;21086;44.780;17.194;2023-12-20T04:57:14;2.00;99.90
34877;DHT22;21086;44.780;17.194;2023-12-20T04:59:41;1.90;99.90
34877;DHT22;21086;44.780;17.194;2023-12-20T05:02:08;1.90;99.90
34877;DHT22;21086;44.780;17.194;2023-12-20T05:04:35;2.00;99.90
34877;DHT22;21086;44.780;17.194;2023-12-20T05:07:02;1.90;99.90
34877;DHT22;21086;44.780;17.194;2023-12-20T05:09:32;1.60;99.90
34877;DHT22;21086;44.780;17.194;2023-12-20T05:11:58;1.60;99.90
34877;DHT22;21086;44.780;17.194;2023-12-20T05:14:25;1.60;99.90
34877;DHT22;21086;44.780;17.194;2023-12-20T05:16:52;1.70;99.90
34877;DHT22;21086;44.780;17.194;2023-12-20T05:19:19;1.70;99.90
34877;DHT22;21086;44.780;17.194;2023-12-20T05:21:46;1.80;99.90
34877;DHT22;21086;44.780;17.194;2023-12-20T05:24:13;1.80;99.90
34877;DHT22;21086;44.780;17.194;2023-12-20T05:26:41;1.90;99.90
34877;DHT22;21086;44.780;17.194;2023-12-20T05:29:11;2.00;99.90
34877;DHT22;21086;44.780;17.194;2023-12-20T05:31:38;2.10;99.90
34877;DHT22;21086;44.780;17.194;2023-12-20T05:34:05;2.00;99.90
34877;DHT22;21086;44.780;17.194;2023-12-20T05:36:32;2.00;99.90
34877;DHT22;21086;44.780;17.194;2023-12-20T05:38:59;2.00;99.90
34877;DHT22;21086;44.780;17.194;2023-12-20T05:41:26;2.00;99.90
34877;DHT22;21086;44.780;17.194;2023-12-20T05:43:53;2.00;99.90
34877;DHT22;21086;44.780;17.194;2023-12-20T05:46:20;1.90;99.90
34877;DHT22;21086;44.780;17.194;2023-12-20T05:48:48;1.90;99.90
34877;DHT22;21086;44.780;17.194;2023-12-20T05:51:15;1.90;99.90
34877;DHT22;21086;44.780;17.194;2023-12-20T05:53:42;1.90;99.90
34877;DHT22;21086;44.780;17.194;2023-12-20T05:56:10;1.70;99.90
34877;DHT22;21086;44.780;17.194;2023-12-20T05:58:38;1.70;99.90
34877;DHT22;21086;44.780;17.194;2023-12-20T06:01:06;1.70;99.90
34877;DHT22;21086;44.780;17.194;2023-12-20T06:03:35;1.80;99.90
34877;DHT22;21086;44.780;17.194;2023-12-20T06:06:08;1.80;99.90
34877;DHT22;21086;44.780;17.194;2023-12-20T06:08:43;1.80;99.90
34877;DHT22;21086;44.780;17.194;2023-12-20T06:11:10;1.80;99.90
34877;DHT22;21086;44.780;17.194;2023-12-20T06:13:38;1.90;99.90
34877;DHT22;21086;44.780;17.194;2023-12-20T06:16:06;1.90;99.90
34877;DHT22;21086;44.780;17.194;2023-12-20T06:18:36;2.00;99.90
34877;DHT22;21086;44.780;17.194;2023-12-20T06:21:04;2.00;99.90
34877;DHT22;21086;44.780;17.194;2023-12-20T06:23:31;2.00;99.90
34877;DHT22;21086;44.780;17.194;2023-12-20T06:25:58;2.00;99.90
34877;DHT22;21086;44.780;17.194;2023-12-20T06:28:25;2.20;99.90
34877;DHT22;21086;44.780;17.194;2023-12-20T06:30:52;2.20;99.90
34877;DHT22;21086;44.780;17.194;2023-12-20T06:33:21;2.20;99.90
34877;DHT22;21086;44.780;17.194;2023-12-20T06:35:49;2.30;99.90
34877;DHT22;21086;44.780;17.194;2023-12-20T06:38:18;2.30;99.90
34877;DHT22;21086;44.780;17.194;2023-12-20T06:40:45;2.30;99.90
34877;DHT22;21086;44.780;17.194;2023-12-20T06:43:13;2.30;99.90
34877;DHT22;21086;44.780;17.194;2023-12-20T06:45:58;2.40;99.90
34877;DHT22;21086;44.780;17.194;2023-12-20T06:48:25;2.30;99.90
34877;DHT22;21086;44.780;17.194;2023-12-20T06:50:52;2.40;99.90
34877;DHT22;21086;44.780;17.194;2023-12-20T06:53:19;2.40;99.90
34877;DHT22;21086;44.780;17.194;2023-12-20T06:55:48;2.40;99.90
34877;DHT22;21086;44.780;17.194;2023-12-20T06:58:15;2.40;99.90
34877;DHT22;21086;44.780;17.194;2023-12-20T07:00:43;2.50;99.90
34877;DHT22;21086;44.780;17.194;2023-12-20T07:03:10;2.60;99.90
34877;DHT22;21086;44.780;17.194;2023-12-20T07:05:37;2.70;99.90
34877;DHT22;21086;44.780;17.194;2023-12-20T07:08:05;2.80;99.90
34877;DHT22;21086;44.780;17.194;2023-12-20T07:10:32;2.90;99.90
34877;DHT22;21086;44.780;17.194;2023-12-20T07:12:59;3.00;99.90
34877;DHT22;21086;44.780;17.194;2023-12-20T07:15:26;3.10;99.90
34877;DHT22;21086;44.780;17.194;2023-12-20T07:17:53;3.30;99.90
34877;DHT22;21086;44.780;17.194;2023-12-20T07:20:21;3.40;99.90
34877;DHT22;21086;44.780;17.194;2023-12-20T07:22:48;3.60;99.90
34877;DHT22;21086;44.780;17.194;2023-12-20T07:25:15;3.80;99.90
34877;DHT22;21086;44.780;17.194;2023-12-20T07:27:42;3.90;99.90
34877;DHT22;21086;44.780;17.194;2023-12-20T07:30:11;4.10;99.90
34877;DHT22;21086;44.780;17.194;2023-12-20T07:32:38;4.20;99.90
34877;DHT22;21086;44.780;17.194;2023-12-20T07:35:05;4.40;99.90
34877;DHT22;21086;44.780;17.194;2023-12-20T07:37:33;4.60;99.90
34877;DHT22;21086;44.780;17.194;2023-12-20T07:40:00;4.80;99.90
34877;DHT22;21086;44.780;17.194;2023-12-20T07:42:27;4.90;99.90
34877;DHT22;21086;44.780;17.194;2023-12-20T07:44:54;5.10;99.90
34877;DHT22;21086;44.780;17.194;2023-12-20T07:47:22;5.20;99.90
34877;DHT22;21086;44.780;17.194;2023-12-20T07:49:49;5.20;99.90
34877;DHT22;21086;44.780;17.194;2023-12-20T07:52:18;5.20;99.90
34877;DHT22;21086;44.780;17.194;2023-12-20T07:54:46;5.20;99.90
34877;DHT22;21086;44.780;17.194;2023-12-20T07:57:13;5.10;99.90
34877;DHT22;21086;44.780;17.194;2023-12-20T07:59:40;5.10;99.90
34877;DHT22;21086;44.780;17.194;2023-12-20T08:02:07;5.10;99.90
34877;DHT22;21086;44.780;17.194;2023-12-20T08:04:34;5.20;99.90
34877;DHT22;21086;44.780;17.194;2023-12-20T08:07:01;5.10;99.90
34877;DHT22;21086;44.780;17.194;2023-12-20T08:09:28;5.20;99.90
34877;DHT22;21086;44.780;17.194;2023-12-20T08:11:55;5.00;99.90
34877;DHT22;21086;44.780;17.194;2023-12-20T08:14:22;5.30;99.90
34877;DHT22;21086;44.780;17.194;2023-12-20T08:16:49;5.40;99.90
34877;DHT22;21086;44.780;17.194;2023-12-20T08:19:16;5.60;99.90
34877;DHT22;21086;44.780;17.194;2023-12-20T08:21:44;5.60;99.90
34877;DHT22;21086;44.780;17.194;2023-12-20T08:24:11;5.80;99.90
34877;DHT22;21086;44.780;17.194;2023-12-20T08:26:38;5.80;99.90
34877;DHT22;21086;44.780;17.194;2023-12-20T08:29:05;5.80;99.90
34877;DHT22;21086;44.780;17.194;2023-12-20T08:31:32;6.20;99.90
34877;DHT22;21086;44.780;17.194;2023-12-20T08:33:59;6.10;99.90
34877;DHT22;21086;44.780;17.194;2023-12-20T08:36:26;6.20;99.90
34877;DHT22;21086;44.780;17.194;2023-12-20T08:38:53;6.30;99.90
34877;DHT22;21086;44.780;17.194;2023-12-20T08:41:20;6.40;99.90
34877;DHT22;21086;44.780;17.194;2023-12-20T08:43:47;6.60;99.90
34877;DHT22;21086;44.780;17.194;2023-12-20T08:46:15;6.70;99.90
34877;DHT22;21086;44.780;17.194;2023-12-20T08:48:42;6.70;99.90
34877;DHT22;21086;44.780;17.194;2023-12-20T08:51:10;6.70;99.90
34877;DHT22;21086;44.780;17.194;2023-12-20T08:53:37;6.70;99.90
34877;DHT22;21086;44.780;17.194;2023-12-20T08:56:05;6.70;99.90
34877;DHT22;21086;44.780;17.194;2023-12-20T08:58:32;6.50;99.90
34877;DHT22;21086;44.780;17.194;2023-12-20T09:01:00;6.40;99.90
34877;DHT22;21086;44.780;17.194;2023-12-20T09:03:27;6.50;99.90
34877;DHT22;21086;44.780;17.194;2023-12-20T09:05:54;6.90;99.90
34877;DHT22;21086;44.780;17.194;2023-12-20T09:08:21;7.20;99.90
34877;DHT22;21086;44.780;17.194;2023-12-20T09:10:48;7.60;99.90
34877;DHT22;21086;44.780;17.194;2023-12-20T09:13:15;8.10;99.90
34877;DHT22;21086;44.780;17.194;2023-12-20T09:15:42;8.50;99.90
34877;DHT22;21086;44.780;17.194;2023-12-20T09:18:09;8.70;99.90
34877;DHT22;21086;44.780;17.194;2023-12-20T09:20:36;8.70;99.90
34877;DHT22;21086;44.780;17.194;2023-12-20T09:23:06;8.60;99.90
34877;DHT22;21086;44.780;17.194;2023-12-20T09:25:33;8.70;99.90
34877;DHT22;21086;44.780;17.194;2023-12-20T09:28:00;9.00;99.90
34877;DHT22;21086;44.780;17.194;2023-12-20T09:30:27;9.30;99.90
34877;DHT22;21086;44.780;17.194;2023-12-20T09:32:56;9.80;99.90
34877;DHT22;21086;44.780;17.194;2023-12-20T09:35:23;10.20;99.90
34877;DHT22;21086;44.780;17.194;2023-12-20T09:37:50;10.30;99.90
34877;DHT22;21086;44.780;17.194;2023-12-20T09:40:20;10.40;99.90
34877;DHT22;21086;44.780;17.194;2023-12-20T09:42:48;10.60;99.90
34877;DHT22;21086;44.780;17.194;2023-12-20T09:45:20;10.90;99.90
34877;DHT22;21086;44.780;17.194;2023-12-20T09:47:52;11.00;99.90
34877;DHT22;21086;44.780;17.194;2023-12-20T09:50:20;10.80;99.90
34877;DHT22;21086;44.780;17.194;2023-12-20T09:52:52;10.60;99.90
34877;DHT22;21086;44.780;17.194;2023-12-20T09:55:20;10.40;99.90
34877;DHT22;21086;44.780;17.194;2023-12-20T09:57:49;10.10;99.90
34877;DHT22;21086;44.780;17.194;2023-12-20T10:00:17;9.90;99.90
34877;DHT22;21086;44.780;17.194;2023-12-20T10:05:29;9.70;99.90
34877;DHT22;21086;44.780;17.194;2023-12-20T10:07:57;10.20;99.90
34877;DHT22;21086;44.780;17.194;2023-12-20T10:10:26;10.80;99.90
34877;DHT22;21086;44.780;17.194;2023-12-20T10:13:10;11.40;99.90
34877;DHT22;21086;44.780;17.194;2023-12-20T10:15:38;12.20;99.90
34877;DHT22;21086;44.780;17.194;2023-12-20T10:18:05;12.70;99.90
34877;DHT22;21086;44.780;17.194;2023-12-20T10:20:33;13.10;99.90
34877;DHT22;21086;44.780;17.194;2023-12-20T10:23:01;13.50;99.90
34877;DHT22;21086;44.780;17.194;2023-12-20T10:25:28;13.90;99.90
34877;DHT22;21086;44.780;17.194;2023-12-20T10:28:15;14.40;99.90
34877;DHT22;21086;44.780;17.194;2023-12-20T10:30:47;14.90;99.90
34877;DHT22;21086;44.780;17.194;2023-12-20T10:33:30;14.90;99.90
34877;DHT22;21086;44.780;17.194;2023-12-20T10:36:01;15.00;99.90
34877;DHT22;21086;44.780;17.194;2023-12-20T10:38:29;15.00;99.90
34877;DHT22;21086;44.780;17.194;2023-12-20T10:40:58;14.70;99.90
34877;DHT22;21086;44.780;17.194;2023-12-20T10:43:28;14.70;99.90
34877;DHT22;21086;44.780;17.194;2023-12-20T10:45:58;15.20;99.90
34877;DHT22;21086;44.780;17.194;2023-12-20T10:48:26;15.70;99.90
34877;DHT22;21086;44.780;17.194;2023-12-20T10:50:57;16.60;99.90
34877;DHT22;21086;44.780;17.194;2023-12-20T10:53:25;17.30;99.90
34877;DHT22;21086;44.780;17.194;2023-12-20T10:55:55;18.00;99.90
34877;DHT22;21086;44.780;17.194;2023-12-20T10:58:26;18.60;99.90
34877;DHT22;21086;44.780;17.194;2023-12-20T11:01:00;19.40;99.90
34877;DHT22;21086;44.780;17.194;2023-12-20T11:03:34;20.00;99.90
34877;DHT22;21086;44.780;17.194;2023-12-20T11:06:27;20.30;99.90
34877;DHT22;21086;44.780;17.194;2023-12-20T11:09:16;20.90;99.90
34877;DHT22;21086;44.780;17.194;2023-12-20T11:14:47;21.30;99.90
34877;DHT22;21086;44.780;17.194;2023-12-20T11:17:14;21.90;99.90
34877;DHT22;21086;44.780;17.194;2023-12-20T11:20:07;22.40;99.90
34877;DHT22;21086;44.780;17.194;2023-12-20T11:22:37;22.80;99.90
34877;DHT22;21086;44.780;17.194;2023-12-20T11:25:10;23.30;99.90
34877;DHT22;21086;44.780;17.194;2023-12-20T11:27:41;23.60;99.90
34877;DHT22;21086;44.780;17.194;2023-12-20T11:30:11;23.90;99.90
34877;DHT22;21086;44.780;17.194;2023-12-20T11:32:40;24.40;99.90
34877;DHT22;21086;44.780;17.194;2023-12-20T11:37:39;25.20;99.90
34877;DHT22;21086;44.780;17.194;2023-12-20T11:40:16;25.30;99.90
34877;DHT22;21086;44.780;17.194;2023-12-20T11:42:45;25.60;99.90
34877;DHT22;21086;44.780;17.194;2023-12-20T11:45:20;25.70;99.90
34877;DHT22;21086;44.780;17.194;2023-12-20T11:47:49;26.20;99.90
34877;DHT22;21086;44.780;17.194;2023-12-20T11:50:18;26.10;99.90
34877;DHT22;21086;44.780;17.194;2023-12-20T11:52:46;26.10;99.90
34877;DHT22;21086;44.780;17.194;2023-12-20T11:55:14;26.50;99.90
34877;DHT22;21086;44.780;17.194;2023-12-20T11:57:42;26.80;99.90
34877;DHT22;21086;44.780;17.194;2023-12-20T12:00:10;27.00;99.90
34877;DHT22;21086;44.780;17.194;2023-12-20T12:02:38;27.10;99.90
34877;DHT22;21086;44.780;17.194;2023-12-20T12:05:05;27.30;99.90
34877;DHT22;21086;44.780;17.194;2023-12-20T12:07:34;27.20;99.90
34877;DHT22;21086;44.780;17.194;2023-12-20T12:10:01;27.60;99.90
34877;DHT22;21086;44.780;17.194;2023-12-20T12:12:30;28.00;99.90
34877;DHT22;21086;44.780;17.194;2023-12-20T12:14:59;27.90;99.90
34877;DHT22;21086;44.780;17.194;2023-12-20T12:17:26;28.00;99.90
34877;DHT22;21086;44.780;17.194;2023-12-20T12:20:03;28.50;99.90
34877;DHT22;21086;44.780;17.194;2023-12-20T12:22:31;29.30;99.90
34877;DHT22;21086;44.780;17.194;2023-12-20T12:25:09;29.50;99.90
34877;DHT22;21086;44.780;17.194;2023-12-20T12:27:37;30.00;99.90
34877;DHT22;21086;44.780;17.194;2023-12-20T12:30:07;29.70;99.90
34877;DHT22;21086;44.780;17.194;2023-12-20T12:32:35;30.00;99.90
34877;DHT22;21086;44.780;17.194;2023-12-20T12:35:04;30.10;99.90
34877;DHT22;21086;44.780;17.194;2023-12-20T12:37:40;30.40;99.90
34877;DHT22;21086;44.780;17.194;2023-12-20T12:40:10;30.80;99.90
34877;DHT22;21086;44.780;17.194;2023-12-20T12:42:38;31.00;99.90
34877;DHT22;21086;44.780;17.194;2023-12-20T12:45:05;31.20;99.90
34877;DHT22;21086;44.780;17.194;2023-12-20T12:47:33;31.20;99.90
34877;DHT22;21086;44.780;17.194;2023-12-20T12:50:00;31.10;99.90
34877;DHT22;21086;44.780;17.194;2023-12-20T12:52:28;31.30;99.90
34877;DHT22;21086;44.780;17.194;2023-12-20T12:54:55;31.60;99.90
34877;DHT22;21086;44.780;17.194;2023-12-20T12:57:22;31.60;99.90
34877;DHT22;21086;44.780;17.194;2023-12-20T12:59:51;31.50;99.90
34877;DHT22;21086;44.780;17.194;2023-12-20T13:02:18;31.50;99.90
34877;DHT22;21086;44.780;17.194;2023-12-20T13:04:45;31.90;99.90
34877;DHT22;21086;44.780;17.194;2023-12-20T13:07:13;31.90;99.90
34877;DHT22;21086;44.780;17.194;2023-12-20T13:09:40;31.50;99.90
34877;DHT22;21086;44.780;17.194;2023-12-20T13:12:07;31.30;99.90
34877;DHT22;21086;44.780;17.194;2023-12-20T13:14:35;31.30;99.90
34877;DHT22;21086;44.780;17.194;2023-12-20T13:17:03;31.30;99.90
34877;DHT22;21086;44.780;17.194;2023-12-20T13:19:31;31.20;99.90
34877;DHT22;21086;44.780;17.194;2023-12-20T13:21:58;30.90;99.90
34877;DHT22;21086;44.780;17.194;2023-12-20T13:24:25;30.70;99.90
34877;DHT22;21086;44.780;17.194;2023-12-20T13:26:52;30.50;99.90
34877;DHT22;21086;44.780;17.194;2023-12-20T13:29:19;30.40;99.90
34877;DHT22;21086;44.780;17.194;2023-12-20T13:31:46;30.60;99.90
34877;DHT22;21086;44.780;17.194;2023-12-20T13:34:13;30.60;99.90
34877;DHT22;21086;44.780;17.194;2023-12-20T13:36:41;30.60;99.90
34877;DHT22;21086;44.780;17.194;2023-12-20T13:39:09;30.60;99.90
34877;DHT22;21086;44.780;17.194;2023-12-20T13:41:36;30.20;99.90
34877;DHT22;21086;44.780;17.194;2023-12-20T13:44:04;29.80;99.90
34877;DHT22;21086;44.780;17.194;2023-12-20T13:46:31;30.10;99.90
34877;DHT22;21086;44.780;17.194;2023-12-20T13:48:58;29.90;99.90
34877;DHT22;21086;44.780;17.194;2023-12-20T13:51:25;29.60;99.90
34877;DHT22;21086;44.780;17.194;2023-12-20T13:53:52;28.20;99.90
34877;DHT22;21086;44.780;17.194;2023-12-20T13:56:19;26.70;99.90
34877;DHT22;21086;44.780;17.194;2023-12-20T13:58:47;25.50;99.90
34877;DHT22;21086;44.780;17.194;2023-12-20T14:01:14;24.10;99.90
34877;DHT22;21086;44.780;17.194;2023-12-20T14:03:41;23.10;99.90
34877;DHT22;21086;44.780;17.194;2023-12-20T14:06:12;22.40;99.90
34877;DHT22;21086;44.780;17.194;2023-12-20T14:08:40;21.50;99.90
34877;DHT22;21086;44.780;17.194;2023-12-20T14:11:08;20.80;99.90
34877;DHT22;21086;44.780;17.194;2023-12-20T14:13:35;20.00;99.90
34877;DHT22;21086;44.780;17.194;2023-12-20T14:16:02;19.40;99.90
34877;DHT22;21086;44.780;17.194;2023-12-20T14:18:30;18.80;99.90
34877;DHT22;21086;44.780;17.194;2023-12-20T14:20:57;18.30;99.90
34877;DHT22;21086;44.780;17.194;2023-12-20T14:23:24;17.90;99.90
34877;DHT22;21086;44.780;17.194;2023-12-20T14:25:51;17.50;99.90
34877;DHT22;21086;44.780;17.194;2023-12-20T14:28:19;17.20;99.90
34877;DHT22;21086;44.780;17.194;2023-12-20T14:30:46;16.80;99.90
34877;DHT22;21086;44.780;17.194;2023-12-20T14:33:14;16.50;99.90
34877;DHT22;21086;44.780;17.194;2023-12-20T14:35:41;16.20;99.90
34877;DHT22;21086;44.780;17.194;2023-12-20T14:38:11;15.90;99.90
34877;DHT22;21086;44.780;17.194;2023-12-20T14:40:41;15.60;99.90
34877;DHT22;21086;44.780;17.194;2023-12-20T14:43:08;15.30;99.90
34877;DHT22;21086;44.780;17.194;2023-12-20T14:45:35;15.00;99.90
34877;DHT22;21086;44.780;17.194;2023-12-20T14:48:02;14.70;99.90
34877;DHT22;21086;44.780;17.194;2023-12-20T14:50:30;14.40;99.90
34877;DHT22;21086;44.780;17.194;2023-12-20T14:52:57;14.20;99.90
34877;DHT22;21086;44.780;17.194;2023-12-20T14:55:24;13.90;99.90
34877;DHT22;21086;44.780;17.194;2023-12-20T14:57:53;13.70;99.90
34877;DHT22;21086;44.780;17.194;2023-12-20T15:00:20;13.50;99.90
34877;DHT22;21086;44.780;17.194;2023-12-20T15:02:47;13.30;99.90
34877;DHT22;21086;44.780;17.194;2023-12-20T15:05:14;13.20;99.90
34877;DHT22;21086;44.780;17.194;2023-12-20T15:07:42;13.10;99.90
34877;DHT22;21086;44.780;17.194;2023-12-20T15:10:09;13.00;99.90
34877;DHT22;21086;44.780;17.194;2023-12-20T15:12:36;12.90;99.90
34877;DHT22;21086;44.780;17.194;2023-12-20T15:15:04;12.80;99.90
34877;DHT22;21086;44.780;17.194;2023-12-20T15:17:31;12.70;99.90
34877;DHT22;21086;44.780;17.194;2023-12-20T15:19:58;12.60;99.90
34877;DHT22;21086;44.780;17.194;2023-12-20T15:22:25;12.50;99.90
34877;DHT22;21086;44.780;17.194;2023-12-20T15:24:53;12.40;99.90
34877;DHT22;21086;44.780;17.194;2023-12-20T15:27:21;12.20;99.90
34877;DHT22;21086;44.780;17.194;2023-12-20T15:29:51;12.10;99.90
34877;DHT22;21086;44.780;17.194;2023-12-20T15:32:18;12.00;99.90
34877;DHT22;21086;44.780;17.194;2023-12-20T15:34:45;11.80;99.90
34877;DHT22;21086;44.780;17.194;2023-12-20T15:37:13;11.80;99.90
34877;DHT22;21086;44.780;17.194;2023-12-20T15:39:43;11.70;99.90